sensor_id;sensor_type;location;lat;lon;timestamp;pressure;altitude;pressure_sealevel;temperature;humidity
78337;BME280;67610;51.588;7.002;2023-07-29T00:01:36;100023.03;;;21.41;72.41
78337;BME280;67610;51.588;7.002;2023-07-29T00:04:06;100034.66;;;21.35;72.83
78337;BME280;67610;51.588;7.002;2023-07-29T00:06:31;100038.63;;;21.32;72.99
78337;BME280;67610;51.588;7.002;2023-07-29T00:08:57;100029.81;;;21.32;72.95
78337;BME280;67610;51.588;7.002;2023-07-29T00:11:22;100032.47;;;21.32;73.18
78337;BME280;67610;51.588;7.002;2023-07-29T00:13:47;100029.81;;;21.32;73.04
78337;BME280;67610;51.588;7.002;2023-07-29T00:16:15;100025.94;;;21.28;73.14
78337;BME280;67610;51.588;7.002;2023-07-29T00:18:42;100030.41;;;21.22;73.26
78337;BME280;67610;51.588;7.002;2023-07-29T00:21:07;100045.06;;;21.20;73.25
78337;BME280;67610;51.588;7.002;2023-07-29T00:23:33;100042.63;;;21.18;73.36
78337;BME280;67610;51.588;7.002;2023-07-29T00:25:58;100036.22;;;21.19;73.55
78337;BME280;67610;51.588;7.002;2023-07-29T00:28:24;100035.06;;;21.15;73.41
78337;BME280;67610;51.588;7.002;2023-07-29T00:30:49;100033.53;;;21.08;73.72
78337;BME280;67610;51.588;7.002;2023-07-29T00:33:14;100029.69;;;21.04;73.53
78337;BME280;67610;51.588;7.002;2023-07-29T00:35:40;100031.22;;;21.00;74.06
78337;BME280;67610;51.588;7.002;2023-07-29T00:38:05;100025.25;;;20.98;74.16
78337;BME280;67610;51.588;7.002;2023-07-29T00:40:32;100016.91;;;20.94;74.04
78337;BME280;67610;51.588;7.002;2023-07-29T00:43:00;100015.88;;;20.95;74.38
78337;BME280;67610;51.588;7.002;2023-07-29T00:45:26;100011.56;;;20.94;74.34
78337;BME280;67610;51.588;7.002;2023-07-29T00:47:52;100011.44;;;20.89;74.46
78337;BME280;67610;51.588;7.002;2023-07-29T00:50:18;100014.34;;;20.87;74.39
78337;BME280;67610;51.588;7.002;2023-07-29T00:52:43;100004.47;;;20.88;74.48
78337;BME280;67610;51.588;7.002;2023-07-29T00:55:09;100011.44;;;20.89;74.41
78337;BME280;67610;51.588;7.002;2023-07-29T00:57:35;100009.00;;;20.87;74.48
78337;BME280;67610;51.588;7.002;2023-07-29T01:00:01;100006.56;;;20.86;74.14
78337;BME280;67610;51.588;7.002;2023-07-29T01:02:27;100007.03;;;20.83;74.58
78337;BME280;67610;51.588;7.002;2023-07-29T01:10:07;100007.63;;;20.85;74.68
78337;BME280;67610;51.588;7.002;2023-07-29T01:12:43;100005.19;;;20.83;74.36
78337;BME280;67610;51.588;7.002;2023-07-29T01:15:22;100009.94;;;20.81;74.78
78337;BME280;67610;51.588;7.002;2023-07-29T01:17:54;100004.81;;;20.80;75.02
78337;BME280;67610;51.588;7.002;2023-07-29T01:20:22;100001.56;;;20.78;74.81
78337;BME280;67610;51.588;7.002;2023-07-29T01:22:49;100009.59;;;20.78;75.00
78337;BME280;67610;51.588;7.002;2023-07-29T01:25:14;99996.22;;;20.78;75.14
78337;BME280;67610;51.588;7.002;2023-07-29T01:27:42;100006.47;;;20.81;75.35
78337;BME280;67610;51.588;7.002;2023-07-29T01:30:08;100010.75;;;20.82;75.14
78337;BME280;67610;51.588;7.002;2023-07-29T01:35:33;99995.19;;;20.91;74.93
78337;BME280;67610;51.588;7.002;2023-07-29T01:38:07;99996.78;;;20.92;74.99
78337;BME280;67610;51.588;7.002;2023-07-29T01:40:35;99984.25;;;20.92;75.08
78337;BME280;67610;51.588;7.002;2023-07-29T01:43:00;99986.91;;;20.92;74.73
78337;BME280;67610;51.588;7.002;2023-07-29T01:45:26;99981.31;;;20.94;74.88
78337;BME280;67610;51.588;7.002;2023-07-29T01:47:52;99985.63;;;20.95;75.28
78337;BME280;67610;51.588;7.002;2023-07-29T01:50:17;99982.72;;;20.96;75.04
78337;BME280;67610;51.588;7.002;2023-07-29T01:52:43;99967.25;;;20.98;75.13
78337;BME280;67610;51.588;7.002;2023-07-29T01:55:11;99972.13;;;21.01;74.88
78337;BME280;67610;51.588;7.002;2023-07-29T01:57:36;99981.34;;;21.05;74.45
78337;BME280;67610;51.588;7.002;2023-07-29T02:00:02;99977.63;;;21.06;74.75
78337;BME280;67610;51.588;7.002;2023-07-29T02:02:29;99977.63;;;21.06;75.05
78337;BME280;67610;51.588;7.002;2023-07-29T02:04:54;99970.66;;;21.05;74.90
78337;BME280;67610;51.588;7.002;2023-07-29T02:07:21;99976.56;;;21.07;74.70
78337;BME280;67610;51.588;7.002;2023-07-29T02:09:46;99977.13;;;21.09;74.74
78337;BME280;67610;51.588;7.002;2023-07-29T02:12:12;99972.97;;;21.13;74.61
78337;BME280;67610;51.588;7.002;2023-07-29T02:14:37;99964.94;;;21.13;74.33
78337;BME280;67610;51.588;7.002;2023-07-29T02:17:03;99952.84;;;21.11;74.40
78337;BME280;67610;51.588;7.002;2023-07-29T02:19:28;99952.28;;;21.09;74.39
78337;BME280;67610;51.588;7.002;2023-07-29T02:21:53;99944.25;;;21.09;74.87
78337;BME280;67610;51.588;7.002;2023-07-29T02:24:19;99947.72;;;21.09;74.96
78337;BME280;67610;51.588;7.002;2023-07-29T02:26:44;99944.25;;;21.09;74.43
78337;BME280;67610;51.588;7.002;2023-07-29T02:29:09;99952.84;;;21.11;74.61
78337;BME280;67610;51.588;7.002;2023-07-29T02:31:38;99953.19;;;21.14;75.13
78337;BME280;67610;51.588;7.002;2023-07-29T02:34:04;99948.50;;;21.21;74.17
78337;BME280;67610;51.588;7.002;2023-07-29T02:36:29;99944.22;;;21.20;74.15
78337;BME280;67610;51.588;7.002;2023-07-29T02:38:54;99942.59;;;21.19;74.24
78337;BME280;67610;51.588;7.002;2023-07-29T02:41:20;99949.00;;;21.18;74.35
78337;BME280;67610;51.588;7.002;2023-07-29T02:43:49;99951.44;;;21.20;74.49
78337;BME280;67610;51.588;7.002;2023-07-29T02:46:15;99957.81;;;21.19;74.47
78337;BME280;67610;51.588;7.002;2023-07-29T02:48:42;99960.50;;;21.19;75.12
78337;BME280;67610;51.588;7.002;2023-07-29T02:51:07;99965.28;;;21.17;74.83
78337;BME280;67610;51.588;7.002;2023-07-29T02:53:32;99955.97;;;21.19;75.38
78337;BME280;67610;51.588;7.002;2023-07-29T02:55:58;99944.22;;;21.20;75.06
78337;BME280;67610;51.588;7.002;2023-07-29T02:58:23;99951.75;;;21.23;75.09
78337;BME280;67610;51.588;7.002;2023-07-29T03:00:49;99948.50;;;21.21;74.88
78337;BME280;67610;51.588;7.002;2023-07-29T03:03:15;99957.94;;;21.24;75.13
78337;BME280;67610;51.588;7.002;2023-07-29T03:05:40;99960.84;;;21.22;75.17
78337;BME280;67610;51.588;7.002;2023-07-29T03:08:06;99960.84;;;21.22;75.46
78337;BME280;67610;51.588;7.002;2023-07-29T03:10:31;99962.69;;;21.22;75.58
78337;BME280;67610;51.588;7.002;2023-07-29T03:12:57;99966.41;;;21.21;75.48
78337;BME280;67610;51.588;7.002;2023-07-29T03:15:25;99964.44;;;21.16;75.97
78337;BME280;67610;51.588;7.002;2023-07-29T03:17:52;99963.16;;;21.19;75.39
78337;BME280;67610;51.588;7.002;2023-07-29T03:20:17;99963.75;;;21.21;75.61
78337;BME280;67610;51.588;7.002;2023-07-29T03:22:43;99959.22;;;21.21;75.81
78337;BME280;67610;51.588;7.002;2023-07-29T03:25:09;99961.88;;;21.21;75.45
78337;BME280;67610;51.588;7.002;2023-07-29T03:27:34;99964.56;;;21.21;75.87
78337;BME280;67610;51.588;7.002;2023-07-29T03:30:04;99964.09;;;21.24;75.29
78337;BME280;67610;51.588;7.002;2023-07-29T03:32:29;99956.78;;;21.20;75.57
78337;BME280;67610;51.588;7.002;2023-07-29T03:34:55;99958.53;;;21.14;76.10
78337;BME280;67610;51.588;7.002;2023-07-29T03:37:20;99958.88;;;21.18;75.94
78337;BME280;67610;51.588;7.002;2023-07-29T03:39:47;99956.91;;;21.13;75.87
78337;BME280;67610;51.588;7.002;2023-07-29T03:42:12;99959.59;;;21.13;75.82
78337;BME280;67610;51.588;7.002;2023-07-29T03:44:38;99950.75;;;21.13;75.83
78337;BME280;67610;51.588;7.002;2023-07-29T03:47:05;99945.97;;;21.15;76.10
78337;BME280;67610;51.588;7.002;2023-07-29T03:49:30;99944.59;;;21.12;75.87
78337;BME280;67610;51.588;7.002;2023-07-29T03:51:56;99947.25;;;21.12;76.10
78337;BME280;67610;51.588;7.002;2023-07-29T03:54:21;99952.72;;;21.17;75.88
78337;BME280;67610;51.588;7.002;2023-07-29T03:56:46;99951.06;;;21.16;76.15
78337;BME280;67610;51.588;7.002;2023-07-29T03:59:12;99944.38;;;21.14;75.94
78337;BME280;67610;51.588;7.002;2023-07-29T04:01:37;99942.16;;;21.11;76.01
78337;BME280;67610;51.588;7.002;2023-07-29T04:04:02;99936.81;;;21.11;76.24
78337;BME280;67610;51.588;7.002;2023-07-29T04:06:28;99940.88;;;21.13;76.22
78337;BME280;67610;51.588;7.002;2023-07-29T04:08:53;99949.47;;;21.15;76.30
78337;BME280;67610;51.588;7.002;2023-07-29T04:11:19;99939.69;;;21.09;76.72
78337;BME280;67610;51.588;7.002;2023-07-29T04:13:45;99945.28;;;21.08;76.73
78337;BME280;67610;51.588;7.002;2023-07-29T04:16:10;99948.66;;;21.03;76.61
78337;BME280;67610;51.588;7.002;2023-07-29T04:18:35;99954.00;;;21.03;76.81
78337;BME280;67610;51.588;7.002;2023-07-29T04:21:01;99949.72;;;21.02;76.37
78337;BME280;67610;51.588;7.002;2023-07-29T04:23:26;99952.38;;;21.02;76.32
78337;BME280;67610;51.588;7.002;2023-07-29T04:25:51;99936.56;;;21.01;76.55
78337;BME280;67610;51.588;7.002;2023-07-29T04:28:17;99933.06;;;21.00;76.20
78337;BME280;67610;51.588;7.002;2023-07-29T04:30:42;99923.44;;;20.99;75.93
78337;BME280;67610;51.588;7.002;2023-07-29T04:33:07;99927.97;;;20.99;75.77
78337;BME280;67610;51.588;7.002;2023-07-29T04:35:33;99932.28;;;21.00;75.73
78337;BME280;67610;51.588;7.002;2023-07-29T04:37:58;99941.59;;;20.97;75.80
78337;BME280;67610;51.588;7.002;2023-07-29T04:40:24;99960.50;;;20.96;75.74
78337;BME280;67610;51.588;7.002;2023-07-29T04:42:50;99967.38;;;20.92;75.35
78337;BME280;67610;51.588;7.002;2023-07-29T04:45:16;99975.06;;;20.88;75.43
78337;BME280;67610;51.588;7.002;2023-07-29T04:47:41;99974.47;;;20.86;74.82
78337;BME280;67610;51.588;7.002;2023-07-29T04:50:07;99978.09;;;20.80;75.43
78337;BME280;67610;51.588;7.002;2023-07-29T04:52:33;99975.31;;;20.75;75.17
78337;BME280;67610;51.588;7.002;2023-07-29T04:54:58;99979.03;;;20.74;74.98
78337;BME280;67610;51.588;7.002;2023-07-29T04:57:23;99984.59;;;20.72;75.23
78337;BME280;67610;51.588;7.002;2023-07-29T04:59:49;99988.09;;;20.73;75.30
78337;BME280;67610;51.588;7.002;2023-07-29T05:02:14;99992.28;;;20.69;75.45
78337;BME280;67610;51.588;7.002;2023-07-29T05:04:40;99993.31;;;20.68;74.96
78337;BME280;67610;51.588;7.002;2023-07-29T05:07:05;99992.28;;;20.69;74.85
78337;BME280;67610;51.588;7.002;2023-07-29T05:09:31;99991.47;;;20.68;74.85
78337;BME280;67610;51.588;7.002;2023-07-29T05:11:56;99969.75;;;20.65;74.74
78337;BME280;67610;51.588;7.002;2023-07-29T05:14:22;99960.91;;;20.64;73.88
78337;BME280;67610;51.588;7.002;2023-07-29T05:16:47;99951.50;;;20.62;73.68
78337;BME280;67610;51.588;7.002;2023-07-29T05:19:13;99934.31;;;20.58;73.99
78337;BME280;67610;51.588;7.002;2023-07-29T05:21:39;99932.22;;;20.60;73.96
78337;BME280;67610;51.588;7.002;2023-07-29T05:24:04;99937.31;;;20.61;73.35
78337;BME280;67610;51.588;7.002;2023-07-29T05:26:29;99940.56;;;20.63;73.00
78337;BME280;67610;51.588;7.002;2023-07-29T05:28:55;99954.03;;;20.68;72.79
78337;BME280;67610;51.588;7.002;2023-07-29T05:31:21;99956.47;;;20.70;72.41
78337;BME280;67610;51.588;7.002;2023-07-29T05:33:47;99959.06;;;20.65;72.10
78337;BME280;67610;51.588;7.002;2023-07-29T05:36:12;99965.66;;;20.74;72.18
78337;BME280;67610;51.588;7.002;2023-07-29T05:38:38;99981.47;;;20.75;72.23
78337;BME280;67610;51.588;7.002;2023-07-29T05:41:03;99993.09;;;20.81;72.33
78337;BME280;67610;51.588;7.002;2023-07-29T05:43:28;100005.06;;;20.90;71.49
78337;BME280;67610;51.588;7.002;2023-07-29T05:45:54;99999.34;;;20.86;71.81
78337;BME280;67610;51.588;7.002;2023-07-29T05:48:19;99998.19;;;20.82;71.82
78337;BME280;67610;51.588;7.002;2023-07-29T05:50:45;100007.50;;;20.80;71.74
78337;BME280;67610;51.588;7.002;2023-07-29T05:53:10;100023.41;;;20.75;71.82
78337;BME280;67610;51.588;7.002;2023-07-29T05:55:35;100020.75;;;20.75;71.15
78337;BME280;67610;51.588;7.002;2023-07-29T05:58:01;100029.25;;;20.72;71.12
78337;BME280;67610;51.588;7.002;2023-07-29T06:00:26;100021.31;;;20.77;70.62
78337;BME280;67610;51.588;7.002;2023-07-29T06:02:51;100020.84;;;20.80;69.63
78337;BME280;67610;51.588;7.002;2023-07-29T06:05:17;100020.53;;;20.76;69.30
78337;BME280;67610;51.588;7.002;2023-07-29T06:07:42;100025.97;;;20.70;69.15
78337;BME280;67610;51.588;7.002;2023-07-29T06:10:14;100024.34;;;20.69;68.70
78337;BME280;67610;51.588;7.002;2023-07-29T06:12:39;100028.16;;;20.61;67.71
78337;BME280;67610;51.588;7.002;2023-07-29T06:15:05;100039.09;;;20.60;67.35
78337;BME280;67610;51.588;7.002;2023-07-29T06:17:30;100042.22;;;20.57;67.74
78337;BME280;67610;51.588;7.002;2023-07-29T06:19:56;100043.88;;;20.58;67.66
78337;BME280;67610;51.588;7.002;2023-07-29T06:22:21;100047.69;;;20.62;67.09
78337;BME280;67610;51.588;7.002;2023-07-29T06:24:46;100047.81;;;20.67;66.48
78337;BME280;67610;51.588;7.002;2023-07-29T06:27:12;100043.50;;;20.66;66.51
78337;BME280;67610;51.588;7.002;2023-07-29T06:29:37;100056.06;;;20.65;66.70
78337;BME280;67610;51.588;7.002;2023-07-29T06:32:03;100063.28;;;20.76;67.13
78337;BME280;67610;51.588;7.002;2023-07-29T06:34:28;100065.03;;;20.94;66.67
78337;BME280;67610;51.588;7.002;2023-07-29T06:36:54;100054.59;;;21.04;66.58
78337;BME280;67610;51.588;7.002;2023-07-29T06:39:19;100066.47;;;21.08;66.18
78337;BME280;67610;51.588;7.002;2023-07-29T06:41:44;100063.09;;;21.13;66.68
78337;BME280;67610;51.588;7.002;2023-07-29T06:44:10;100060.63;;;21.23;66.37
78337;BME280;67610;51.588;7.002;2023-07-29T06:46:35;100060.00;;;21.32;66.14
78337;BME280;67610;51.588;7.002;2023-07-29T06:49:00;100065.13;;;21.45;64.52
78337;BME280;67610;51.588;7.002;2023-07-29T06:51:26;100063.75;;;21.43;64.48
78337;BME280;67610;51.588;7.002;2023-07-29T06:53:51;100058.72;;;21.46;64.55
78337;BME280;67610;51.588;7.002;2023-07-29T06:56:17;100067.44;;;21.53;64.32
78337;BME280;67610;51.588;7.002;2023-07-29T06:58:43;100061.84;;;21.55;63.29
78337;BME280;67610;51.588;7.002;2023-07-29T07:01:08;100069.75;;;21.62;62.22
78337;BME280;67610;51.588;7.002;2023-07-29T07:03:33;100072.28;;;21.68;62.39
78337;BME280;67610;51.588;7.002;2023-07-29T07:05:59;100053.63;;;22.13;61.52
78337;BME280;67610;51.588;7.002;2023-07-29T07:08:24;100050.25;;;22.51;60.85
78337;BME280;67610;51.588;7.002;2023-07-29T07:10:49;100059.50;;;22.60;59.54
78337;BME280;67610;51.588;7.002;2023-07-29T07:13:15;100051.75;;;22.91;59.85
78337;BME280;67610;51.588;7.002;2023-07-29T07:15:40;100058.66;;;23.26;57.49
78337;BME280;67610;51.588;7.002;2023-07-29T07:18:06;100052.81;;;23.29;58.32
78337;BME280;67610;51.588;7.002;2023-07-29T07:20:31;100052.34;;;23.53;57.02
78337;BME280;67610;51.588;7.002;2023-07-29T07:22:56;100060.06;;;23.93;56.61
78337;BME280;67610;51.588;7.002;2023-07-29T07:25:22;100062.34;;;24.33;55.04
78337;BME280;67610;51.588;7.002;2023-07-29T07:27:47;100059.94;;;25.00;53.26
78337;BME280;67610;51.588;7.002;2023-07-29T07:30:13;100051.16;;;25.67;51.94
78337;BME280;67610;51.588;7.002;2023-07-29T07:32:39;100048.78;;;25.85;50.50
78337;BME280;67610;51.588;7.002;2023-07-29T07:35:05;100063.31;;;25.79;51.06
78337;BME280;67610;51.588;7.002;2023-07-29T07:37:30;100061.97;;;25.82;50.64
78337;BME280;67610;51.588;7.002;2023-07-29T07:39:56;100065.75;;;25.81;49.76
78337;BME280;67610;51.588;7.002;2023-07-29T07:42:21;100061.41;;;25.75;49.16
78337;BME280;67610;51.588;7.002;2023-07-29T07:44:46;100068.75;;;25.89;49.35
78337;BME280;67610;51.588;7.002;2023-07-29T07:47:12;100066.97;;;26.20;47.86
78337;BME280;67610;51.588;7.002;2023-07-29T07:49:37;100065.88;;;26.41;47.56
78337;BME280;67610;51.588;7.002;2023-07-29T07:52:02;100065.88;;;26.31;47.00
78337;BME280;67610;51.588;7.002;2023-07-29T07:54:28;100057.50;;;26.12;46.81
78337;BME280;67610;51.588;7.002;2023-07-29T07:56:53;100057.41;;;25.97;48.09
78337;BME280;67610;51.588;7.002;2023-07-29T07:59:19;100060.34;;;25.86;47.92
78337;BME280;67610;51.588;7.002;2023-07-29T08:01:44;100056.69;;;26.12;47.00
78337;BME280;67610;51.588;7.002;2023-07-29T08:04:10;100061.50;;;26.05;47.91
78337;BME280;67610;51.588;7.002;2023-07-29T08:06:35;100059.34;;;26.07;46.38
78337;BME280;67610;51.588;7.002;2023-07-29T08:09:00;100063.19;;;26.46;45.77
78337;BME280;67610;51.588;7.002;2023-07-29T08:11:26;100064.81;;;26.62;45.92
78337;BME280;67610;51.588;7.002;2023-07-29T08:13:51;100058.59;;;26.97;45.50
78337;BME280;67610;51.588;7.002;2023-07-29T08:16:17;100059.84;;;27.35;44.34
78337;BME280;67610;51.588;7.002;2023-07-29T08:18:42;100058.81;;;27.11;45.33
78337;BME280;67610;51.588;7.002;2023-07-29T08:21:08;100063.84;;;27.57;43.51
78337;BME280;67610;51.588;7.002;2023-07-29T08:23:35;100053.56;;;27.59;44.47
78337;BME280;67610;51.588;7.002;2023-07-29T08:26:03;100051.41;;;28.10;43.25
78337;BME280;67610;51.588;7.002;2023-07-29T08:28:37;100066.56;;;28.11;41.82
78337;BME280;67610;51.588;7.002;2023-07-29T08:31:04;100057.56;;;28.60;41.32
78337;BME280;67610;51.588;7.002;2023-07-29T08:33:30;100067.50;;;28.98;41.45
78337;BME280;67610;51.588;7.002;2023-07-29T08:35:57;100064.59;;;29.42;40.49
78337;BME280;67610;51.588;7.002;2023-07-29T08:38:22;100055.56;;;29.94;39.10
78337;BME280;67610;51.588;7.002;2023-07-29T08:40:57;100058.50;;;30.34;37.60
78337;BME280;67610;51.588;7.002;2023-07-29T08:43:29;100064.41;;;30.55;37.10
78337;BME280;67610;51.588;7.002;2023-07-29T08:45:58;100069.13;;;30.50;37.07
78337;BME280;67610;51.588;7.002;2023-07-29T08:48:32;100063.34;;;30.70;37.30
78337;BME280;67610;51.588;7.002;2023-07-29T08:50:59;100061.03;;;30.77;37.27
78337;BME280;67610;51.588;7.002;2023-07-29T08:53:26;100059.03;;;31.28;36.29
78337;BME280;67610;51.588;7.002;2023-07-29T08:55:52;100055.44;;;30.87;34.51
78337;BME280;67610;51.588;7.002;2023-07-29T08:58:19;100046.84;;;31.12;35.90
78337;BME280;67610;51.588;7.002;2023-07-29T09:00:45;100044.22;;;31.21;35.77
78337;BME280;67610;51.588;7.002;2023-07-29T09:03:11;100047.25;;;31.60;34.20
78337;BME280;67610;51.588;7.002;2023-07-29T09:05:36;100042.66;;;31.83;34.03
78337;BME280;67610;51.588;7.002;2023-07-29T09:08:02;100044.94;;;32.16;34.76
78337;BME280;67610;51.588;7.002;2023-07-29T09:10:29;100045.03;;;32.11;33.87
78337;BME280;67610;51.588;7.002;2023-07-29T09:12:54;100040.91;;;32.14;34.29
78337;BME280;67610;51.588;7.002;2023-07-29T09:15:30;100048.91;;;32.32;33.51
78337;BME280;67610;51.588;7.002;2023-07-29T09:17:57;100051.63;;;32.55;32.54
78337;BME280;67610;51.588;7.002;2023-07-29T09:20:27;100052.03;;;32.48;32.94
78337;BME280;67610;51.588;7.002;2023-07-29T09:22:58;100050.13;;;32.26;32.97
78337;BME280;67610;51.588;7.002;2023-07-29T09:25:28;100048.25;;;32.13;32.94
78337;BME280;67610;51.588;7.002;2023-07-29T09:27:59;100056.31;;;31.69;32.57
78337;BME280;67610;51.588;7.002;2023-07-29T09:30:25;100051.69;;;31.29;33.98
78337;BME280;67610;51.588;7.002;2023-07-29T09:32:57;100048.94;;;31.01;33.78
78337;BME280;67610;51.588;7.002;2023-07-29T09:35:27;100050.78;;;30.74;34.44
78337;BME280;67610;51.588;7.002;2023-07-29T09:37:53;100065.59;;;30.49;35.71
78337;BME280;67610;51.588;7.002;2023-07-29T09:40:19;100059.81;;;30.37;35.34
78337;BME280;67610;51.588;7.002;2023-07-29T09:42:52;100053.22;;;30.06;35.48
78337;BME280;67610;51.588;7.002;2023-07-29T09:45:25;100069.63;;;29.77;36.52
78337;BME280;67610;51.588;7.002;2023-07-29T09:47:54;100068.19;;;29.37;37.52
78337;BME280;67610;51.588;7.002;2023-07-29T09:50:25;100073.97;;;29.02;38.33
78337;BME280;67610;51.588;7.002;2023-07-29T09:52:52;100068.41;;;28.60;38.85
78337;BME280;67610;51.588;7.002;2023-07-29T09:55:19;100072.13;;;28.30;39.85
78337;BME280;67610;51.588;7.002;2023-07-29T09:57:45;100071.97;;;28.11;40.71
78337;BME280;67610;51.588;7.002;2023-07-29T10:00:11;100077.50;;;27.86;42.26
78337;BME280;67610;51.588;7.002;2023-07-29T10:02:39;100078.97;;;27.58;42.63
78337;BME280;67610;51.588;7.002;2023-07-29T10:05:05;100076.84;;;27.50;42.82
78337;BME280;67610;51.588;7.002;2023-07-29T10:07:31;100083.03;;;27.56;42.68
78337;BME280;67610;51.588;7.002;2023-07-29T10:09:57;100071.38;;;28.19;41.66
78337;BME280;67610;51.588;7.002;2023-07-29T10:12:24;100067.19;;;28.76;41.22
78337;BME280;67610;51.588;7.002;2023-07-29T10:14:50;100058.75;;;29.06;40.25
78337;BME280;67610;51.588;7.002;2023-07-29T10:17:16;100065.81;;;29.54;38.38
78337;BME280;67610;51.588;7.002;2023-07-29T10:19:43;100067.47;;;29.74;39.20
78337;BME280;67610;51.588;7.002;2023-07-29T10:22:11;100064.72;;;29.98;37.48
78337;BME280;67610;51.588;7.002;2023-07-29T10:24:37;100068.03;;;30.13;37.40
78337;BME280;67610;51.588;7.002;2023-07-29T10:27:06;100061.50;;;30.33;36.42
78337;BME280;67610;51.588;7.002;2023-07-29T10:29:42;100055.94;;;30.43;36.09
78337;BME280;67610;51.588;7.002;2023-07-29T10:32:11;100052.19;;;30.39;35.82
78337;BME280;67610;51.588;7.002;2023-07-29T10:34:36;100043.13;;;31.08;34.83
78337;BME280;67610;51.588;7.002;2023-07-29T10:37:03;100051.31;;;31.49;34.55
78337;BME280;67610;51.588;7.002;2023-07-29T10:39:40;100055.25;;;31.43;34.09
78337;BME280;67610;51.588;7.002;2023-07-29T10:42:16;100055.31;;;31.51;34.19
78337;BME280;67610;51.588;7.002;2023-07-29T10:47:29;100059.72;;;31.74;34.28
78337;BME280;67610;51.588;7.002;2023-07-29T10:49:58;100047.03;;;31.70;33.95
78337;BME280;67610;51.588;7.002;2023-07-29T10:52:51;100045.53;;;32.13;33.15
78337;BME280;67610;51.588;7.002;2023-07-29T10:55:28;100048.47;;;32.17;33.69
78337;BME280;67610;51.588;7.002;2023-07-29T11:00:31;100051.22;;;31.90;33.23
78337;BME280;67610;51.588;7.002;2023-07-29T11:03:02;100048.38;;;31.95;33.17
78337;BME280;67610;51.588;7.002;2023-07-29T11:08:20;100042.16;;;31.45;34.82
78337;BME280;67610;51.588;7.002;2023-07-29T11:13:28;100040.91;;;31.24;34.20
78337;BME280;67610;51.588;7.002;2023-07-29T11:15:54;100027.81;;;31.26;33.75
78337;BME280;67610;51.588;7.002;2023-07-29T11:18:21;100033.03;;;30.95;34.50
78337;BME280;67610;51.588;7.002;2023-07-29T11:20:47;100030.06;;;30.64;34.33
78337;BME280;67610;51.588;7.002;2023-07-29T11:23:13;100040.03;;;30.36;34.89
78337;BME280;67610;51.588;7.002;2023-07-29T11:25:39;100039.66;;;30.06;35.31
78337;BME280;67610;51.588;7.002;2023-07-29T11:28:04;100039.69;;;29.63;36.04
78337;BME280;67610;51.588;7.002;2023-07-29T11:30:30;100043.28;;;29.35;37.01
78337;BME280;67610;51.588;7.002;2023-07-29T11:32:57;100046.50;;;29.14;37.32
78337;BME280;67610;51.588;7.002;2023-07-29T11:35:23;100051.63;;;29.15;37.65
78337;BME280;67610;51.588;7.002;2023-07-29T11:37:50;100049.56;;;29.31;37.32
78337;BME280;67610;51.588;7.002;2023-07-29T11:40:17;100040.19;;;29.23;37.73
78337;BME280;67610;51.588;7.002;2023-07-29T11:42:43;100045.38;;;29.20;37.90
78337;BME280;67610;51.588;7.002;2023-07-29T11:45:09;100042.25;;;29.02;38.38
78337;BME280;67610;51.588;7.002;2023-07-29T11:47:36;100036.72;;;28.89;38.81
78337;BME280;67610;51.588;7.002;2023-07-29T11:50:12;100034.16;;;28.74;38.71
78337;BME280;67610;51.588;7.002;2023-07-29T11:52:42;100030.41;;;28.36;40.31
78337;BME280;67610;51.588;7.002;2023-07-29T11:55:08;100030.84;;;28.14;41.27
78337;BME280;67610;51.588;7.002;2023-07-29T11:57:37;100026.31;;;28.05;41.27
78337;BME280;67610;51.588;7.002;2023-07-29T12:00:07;100025.78;;;27.98;41.11
78337;BME280;67610;51.588;7.002;2023-07-29T12:02:37;100020.72;;;27.91;41.63
78337;BME280;67610;51.588;7.002;2023-07-29T12:05:06;100018.03;;;28.30;41.19
78337;BME280;67610;51.588;7.002;2023-07-29T12:07:33;100014.38;;;28.45;39.62
78337;BME280;67610;51.588;7.002;2023-07-29T12:09:58;100006.91;;;28.31;40.17
78337;BME280;67610;51.588;7.002;2023-07-29T12:12:24;100014.84;;;28.18;40.29
78337;BME280;67610;51.588;7.002;2023-07-29T12:14:49;100003.72;;;28.24;40.17
78337;BME280;67610;51.588;7.002;2023-07-29T12:17:15;100012.44;;;28.16;39.80
78337;BME280;67610;51.588;7.002;2023-07-29T12:19:41;100010.34;;;28.08;40.16
78337;BME280;67610;51.588;7.002;2023-07-29T12:22:08;100010.84;;;28.10;40.26
78337;BME280;67610;51.588;7.002;2023-07-29T12:24:36;100017.88;;;28.11;39.69
78337;BME280;67610;51.588;7.002;2023-07-29T12:27:02;100009.31;;;27.94;39.99
78337;BME280;67610;51.588;7.002;2023-07-29T12:29:27;100011.00;;;27.85;40.12
78337;BME280;67610;51.588;7.002;2023-07-29T12:31:58;100014.31;;;27.72;40.77
78337;BME280;67610;51.588;7.002;2023-07-29T12:34:25;100012.94;;;27.80;40.48
78337;BME280;67610;51.588;7.002;2023-07-29T12:36:52;100011.47;;;28.02;40.17
78337;BME280;67610;51.588;7.002;2023-07-29T12:39:26;100019.94;;;28.24;40.03
78337;BME280;67610;51.588;7.002;2023-07-29T12:41:56;100014.94;;;28.42;39.60
78337;BME280;67610;51.588;7.002;2023-07-29T12:44:24;100023.72;;;28.57;38.75
78337;BME280;67610;51.588;7.002;2023-07-29T12:46:49;100025.88;;;28.65;38.59
78337;BME280;67610;51.588;7.002;2023-07-29T12:49:15;100030.44;;;28.70;38.55
78337;BME280;67610;51.588;7.002;2023-07-29T12:51:40;100024.47;;;28.68;37.72
78337;BME280;67610;51.588;7.002;2023-07-29T12:54:06;100031.34;;;28.55;39.31
78337;BME280;67610;51.588;7.002;2023-07-29T12:56:32;100026.59;;;28.42;38.48
78337;BME280;67610;51.588;7.002;2023-07-29T12:58:58;100021.56;;;28.25;38.74
78337;BME280;67610;51.588;7.002;2023-07-29T13:01:24;100009.97;;;28.20;38.83
78337;BME280;67610;51.588;7.002;2023-07-29T13:03:50;100013.72;;;28.24;39.34
78337;BME280;67610;51.588;7.002;2023-07-29T13:06:15;100024.25;;;28.30;39.18
78337;BME280;67610;51.588;7.002;2023-07-29T13:08:41;100017.09;;;28.45;38.87